Time;durP1;ratioP1;P1;durP2;ratioP2;P2;SDS_P1;SDS_P2;PMS_P1;PMS_P2;Temp;Humidity;BMP_temperature;BMP_pressure;BME280_temperature;BME280_humidity;BME280_pressure;Samples;Min_cycle;Max_cycle;Signal;HPM_P1;HPM_P2
2023/07/06 00:01:14;;;;;;;4.17;3.53;;;16.40;57.30;;;;;;6239959;28;20239;-82
2023/07/06 00:04:17;;;;;;;4.57;4.17;;;16.40;57.80;;;;;;6243763;28;20633;-81
2023/07/06 00:07:22;;;;;;;3.93;3.73;;;16.30;57.90;;;;;;6228974;28;20247;-81
2023/07/06 00:10:26;;;;;;;3.80;3.50;;;16.30;57.80;;;;;;6215297;28;20239;-82
2023/07/06 00:13:29;;;;;;;3.90;3.60;;;16.20;58.20;;;;;;6215537;28;20919;-83
2023/07/06 00:16:34;;;;;;;4.50;3.77;;;16.20;58.20;;;;;;6235443;28;20626;-82
2023/07/06 00:19:37;;;;;;;4.30;4.00;;;16.10;58.40;;;;;;6240064;28;20249;-81
2023/07/06 00:22:40;;;;;;;4.23;4.00;;;16.10;58.80;;;;;;6243187;28;20864;-83
2023/07/06 00:25:43;;;;;;;4.00;3.60;;;16.00;58.70;;;;;;6243713;28;20320;-83
2023/07/06 00:28:48;;;;;;;3.33;3.17;;;16.00;58.60;;;;;;6238607;28;20249;-82
2023/07/06 00:32:03;;;;;;;4.43;3.90;;;16.00;58.70;;;;;;6238258;28;20231;-81
2023/07/06 00:35:10;;;;;;;4.20;4.03;;;15.90;59.30;;;;;;6245365;28;20311;-81
2023/07/06 00:38:15;;;;;;;4.00;3.90;;;15.80;59.30;;;;;;6239589;28;20261;-82
2023/07/06 00:41:18;;;;;;;4.93;4.20;;;15.80;59.40;;;;;;6238524;28;20239;-83
2023/07/06 00:44:47;;;;;;;4.57;4.20;;;15.80;59.70;;;;;;6237608;28;20251;-84
2023/07/06 00:47:56;;;;;;;4.90;4.53;;;15.80;59.50;;;;;;6219985;28;20765;-82
2023/07/06 00:51:03;;;;;;;4.53;4.27;;;15.70;60.10;;;;;;6211210;28;20227;-82
2023/07/06 00:54:10;;;;;;;3.93;3.60;;;15.60;60.00;;;;;;6211193;28;20259;-80
2023/07/06 00:57:17;;;;;;;4.90;4.00;;;15.60;60.20;;;;;;6215218;28;20918;-82
2023/07/06 01:00:21;;;;;;;5.50;4.00;;;15.60;60.30;;;;;;6210971;28;20259;-81
2023/07/06 01:03:26;;;;;;;4.00;3.70;;;15.60;60.30;;;;;;6208257;28;20853;-83
2023/07/06 01:06:34;;;;;;;3.97;3.60;;;15.60;60.20;;;;;;6209609;28;20239;-82
2023/07/06 01:09:39;;;;;;;4.43;3.57;;;15.60;60.30;;;;;;6200851;28;20233;-82
2023/07/06 01:12:42;;;;;;;4.17;3.97;;;15.60;60.50;;;;;;6216227;28;20607;-80
2023/07/06 01:16:00;;;;;;;4.60;3.77;;;15.60;60.80;;;;;;6207125;28;20247;-80
2023/07/06 01:19:26;;;;;;;4.00;3.80;;;15.60;60.70;;;;;;6204746;28;20247;-80
2023/07/06 01:23:05;;;;;;;4.60;4.30;;;15.50;60.70;;;;;;6221036;28;20239;-80
2023/07/06 01:26:29;;;;;;;4.83;3.90;;;15.50;61.40;;;;;;6205341;28;20251;-82
2023/07/06 01:30:17;;;;;;;4.03;3.93;;;15.50;61.20;;;;;;6201967;28;20635;-79
2023/07/06 01:33:28;;;;;;;4.30;4.10;;;15.40;61.40;;;;;;6142294;28;20800;-81
2023/07/06 01:36:38;;;;;;;4.30;3.97;;;15.40;61.20;;;;;;6161694;28;20276;-80
2023/07/06 01:39:41;;;;;;;4.40;4.20;;;15.30;61.10;;;;;;6203485;28;20240;-81
2023/07/06 01:42:45;;;;;;;4.40;4.20;;;15.30;61.10;;;;;;6206714;28;20247;-81
2023/07/06 01:45:49;;;;;;;4.40;4.20;;;15.20;61.20;;;;;;6221512;28;20250;-79
2023/07/06 01:48:53;;;;;;;5.60;4.20;;;15.20;61.20;;;;;;6207003;28;20240;-81
2023/07/06 01:52:03;;;;;;;4.40;4.13;;;15.10;61.80;;;;;;6205601;28;20251;-79
2023/07/06 01:55:14;;;;;;;4.40;4.20;;;15.00;61.80;;;;;;6213642;28;20239;-80
2023/07/06 01:58:25;;;;;;;7.00;4.77;;;15.00;61.90;;;;;;6205754;28;20238;-81
2023/07/06 02:01:35;;;;;;;5.20;4.80;;;15.00;62.30;;;;;;6200757;28;20231;-79
2023/07/06 02:04:43;;;;;;;5.03;4.57;;;15.00;62.10;;;;;;6201202;28;20303;-79
2023/07/06 02:07:48;;;;;;;5.03;4.83;;;15.00;61.80;;;;;;6213860;28;20238;-81
2023/07/06 02:10:52;;;;;;;4.60;4.30;;;15.00;61.70;;;;;;6223372;28;20230;-80
2023/07/06 02:13:55;;;;;;;5.27;4.77;;;15.00;61.70;;;;;;6227600;28;20226;-83
2023/07/06 02:16:59;;;;;;;4.97;4.60;;;15.00;61.70;;;;;;6227214;28;20727;-81
2023/07/06 02:20:04;;;;;;;5.97;4.40;;;15.00;61.50;;;;;;6218656;28;20710;-83
2023/07/06 02:23:11;;;;;;;5.70;5.20;;;14.90;61.50;;;;;;6218777;28;20282;-79
2023/07/06 02:26:14;;;;;;;5.03;4.73;;;14.90;61.60;;;;;;6217668;28;20877;-81
2023/07/06 02:29:18;;;;;;;5.93;4.70;;;14.90;61.60;;;;;;6205372;28;20303;-80
2023/07/06 02:32:21;;;;;;;4.77;4.37;;;14.90;61.40;;;;;;6205197;28;20235;-82
2023/07/06 02:35:27;;;;;;;4.67;4.43;;;14.80;61.50;;;;;;6214702;28;24869;-82
2023/07/06 02:38:30;;;;;;;4.47;4.27;;;14.80;61.70;;;;;;6209921;28;20746;-82
2023/07/06 02:41:35;;;;;;;5.03;4.67;;;14.80;61.70;;;;;;6210565;28;20250;-79
2023/07/06 02:44:38;;;;;;;5.03;4.70;;;14.80;62.20;;;;;;6206947;28;20254;-83
2023/07/06 02:47:41;;;;;;;4.80;4.53;;;14.70;62.40;;;;;;6212137;28;20263;-82
2023/07/06 02:50:50;;;;;;;5.40;5.10;;;14.70;62.40;;;;;;6238808;28;20235;-81
2023/07/06 02:53:53;;;;;;;5.83;5.23;;;14.60;62.60;;;;;;6231680;28;20227;-78
2023/07/06 02:56:57;;;;;;;6.10;4.93;;;14.60;62.80;;;;;;6239237;28;20278;-83
2023/07/06 03:00:00;;;;;;;5.43;4.93;;;14.50;62.90;;;;;;6230886;28;20294;-80
2023/07/06 03:03:04;;;;;;;5.80;4.67;;;14.60;63.00;;;;;;6238723;28;20288;-80
2023/07/06 03:06:08;;;;;;;4.97;4.77;;;14.50;63.00;;;;;;6248501;28;20590;-80
2023/07/06 03:09:12;;;;;;;6.20;5.10;;;14.50;63.50;;;;;;6243160;28;20227;-83
2023/07/06 03:12:17;;;;;;;5.40;5.03;;;14.40;63.30;;;;;;6247542;28;20285;-80
2023/07/06 03:15:21;;;;;;;4.80;4.50;;;14.40;63.30;;;;;;6239861;28;20257;-79
2023/07/06 03:18:24;;;;;;;5.13;4.43;;;14.40;63.50;;;;;;6240210;28;20231;-80
2023/07/06 03:21:29;;;;;;;4.37;4.13;;;14.40;63.40;;;;;;6235637;28;20254;-82
2023/07/06 03:24:34;;;;;;;4.13;4.00;;;14.40;63.30;;;;;;6234179;28;20240;-81
2023/07/06 03:27:37;;;;;;;4.30;4.10;;;14.40;63.20;;;;;;6233797;28;20321;-83
2023/07/06 03:30:43;;;;;;;4.47;4.20;;;14.40;63.20;;;;;;6234545;28;20234;-80
2023/07/06 03:33:46;;;;;;;5.27;4.90;;;14.40;63.50;;;;;;6231180;28;20253;-81
2023/07/06 03:36:51;;;;;;;5.10;4.80;;;14.40;63.60;;;;;;6219385;28;20242;-80
2023/07/06 03:39:54;;;;;;;5.50;5.00;;;14.40;63.70;;;;;;6212010;28;20243;-80
2023/07/06 03:42:58;;;;;;;5.30;4.90;;;14.50;63.90;;;;;;6213639;28;20334;-78
2023/07/06 03:46:03;;;;;;;4.87;4.57;;;14.50;63.90;;;;;;6210483;28;20232;-79
2023/07/06 03:49:08;;;;;;;5.37;4.97;;;14.50;63.90;;;;;;6210552;28;20235;-81
2023/07/06 03:52:17;;;;;;;5.40;4.90;;;14.50;64.10;;;;;;6212681;28;20231;-78
2023/07/06 03:55:24;;;;;;;7.47;4.90;;;14.50;64.30;;;;;;6215855;28;20657;-78
2023/07/06 03:58:28;;;;;;;9.07;5.10;;;14.50;64.30;;;;;;6209127;28;20240;-78
2023/07/06 04:01:32;;;;;;;4.67;4.37;;;14.50;64.20;;;;;;6208432;28;20748;-82
2023/07/06 04:04:36;;;;;;;4.77;4.47;;;14.60;64.20;;;;;;6214341;28;20242;-82
2023/07/06 04:07:41;;;;;;;4.53;4.40;;;14.60;64.10;;;;;;6209010;28;20233;-79
2023/07/06 04:10:44;;;;;;;4.70;4.43;;;14.60;64.20;;;;;;6213010;28;20615;-82
2023/07/06 04:13:48;;;;;;;4.93;4.60;;;14.60;64.30;;;;;;6213141;28;20329;-81
2023/07/06 04:16:52;;;;;;;4.87;4.57;;;14.70;64.20;;;;;;6239731;28;20239;-81
2023/07/06 04:19:56;;;;;;;5.23;4.90;;;14.70;64.20;;;;;;6213483;28;20236;-81
2023/07/06 04:23:00;;;;;;;5.00;4.67;;;14.80;64.20;;;;;;6222083;28;20318;-81
2023/07/06 04:26:03;;;;;;;6.27;5.60;;;14.80;64.10;;;;;;6216869;28;20235;-81
2023/07/06 04:29:10;;;;;;;5.33;5.03;;;14.80;64.00;;;;;;6222616;28;20722;-81
2023/07/06 04:32:14;;;;;;;4.57;4.23;;;14.80;64.10;;;;;;6229439;28;20610;-81
2023/07/06 04:35:18;;;;;;;4.80;4.60;;;14.80;64.10;;;;;;6241630;28;20760;-81
2023/07/06 04:38:25;;;;;;;5.07;4.67;;;14.80;64.20;;;;;;6233030;28;20273;-78
2023/07/06 04:41:28;;;;;;;5.40;5.00;;;14.80;64.50;;;;;;6235007;28;20253;-80
2023/07/06 04:44:31;;;;;;;7.50;4.87;;;14.80;64.60;;;;;;6234039;28;20245;-79
2023/07/06 04:47:35;;;;;;;5.23;4.73;;;14.90;64.60;;;;;;6236690;28;20238;-80
2023/07/06 04:50:39;;;;;;;5.87;4.87;;;15.00;64.60;;;;;;6232205;28;20623;-79
2023/07/06 04:53:43;;;;;;;4.77;4.43;;;15.00;64.70;;;;;;6215669;28;20708;-82
2023/07/06 04:56:46;;;;;;;4.77;4.57;;;15.20;64.50;;;;;;6216740;28;20241;-80
2023/07/06 04:59:50;;;;;;;5.87;5.00;;;15.20;64.50;;;;;;6211795;28;20235;-81
2023/07/06 05:02:54;;;;;;;7.70;4.63;;;15.40;64.30;;;;;;6221513;28;20842;-82
2023/07/06 05:06:02;;;;;;;5.40;4.90;;;15.60;64.20;;;;;;6213901;28;20239;-82
2023/07/06 05:09:07;;;;;;;4.77;4.47;;;15.80;63.90;;;;;;6201251;28;20632;-76
2023/07/06 05:12:11;;;;;;;6.10;4.60;;;16.00;63.70;;;;;;6209158;28;20239;-79
2023/07/06 05:15:14;;;;;;;4.50;4.10;;;16.30;63.40;;;;;;6209187;28;20419;-77
2023/07/06 05:18:19;;;;;;;4.50;4.10;;;16.40;63.00;;;;;;6212240;28;20727;-78
2023/07/06 05:21:23;;;;;;;4.30;4.10;;;16.70;62.50;;;;;;6226614;28;20247;-79
2023/07/06 05:24:28;;;;;;;5.00;4.47;;;17.00;61.80;;;;;;6215387;28;20261;-79
2023/07/06 05:27:31;;;;;;;4.87;4.57;;;17.30;61.30;;;;;;6218862;28;20843;-78
2023/07/06 05:30:34;;;;;;;3.93;3.77;;;17.50;60.70;;;;;;6210506;28;20382;-79
2023/07/06 05:33:40;;;;;;;4.50;4.10;;;17.80;60.40;;;;;;6211570;28;20250;-77
2023/07/06 05:36:43;;;;;;;4.13;3.70;;;18.00;59.90;;;;;;6208160;28;20272;-76
2023/07/06 05:39:48;;;;;;;4.60;3.60;;;18.20;59.50;;;;;;6217904;28;20231;-79
2023/07/06 05:42:52;;;;;;;4.13;3.80;;;18.20;59.30;;;;;;6215921;28;20239;-79
2023/07/06 05:45:55;;;;;;;4.33;4.03;;;17.90;59.80;;;;;;6214966;28;20235;-77
2023/07/06 05:48:59;;;;;;;4.47;4.03;;;18.00;59.90;;;;;;6203354;28;20265;-80
2023/07/06 05:52:02;;;;;;;4.07;3.83;;;18.20;59.10;;;;;;6201836;28;20235;-78
2023/07/06 05:55:07;;;;;;;4.27;3.93;;;18.40;58.50;;;;;;6197949;28;20356;-79
2023/07/06 05:58:11;;;;;;;7.43;3.90;;;18.60;58.30;;;;;;6209721;28;20227;-79
2023/07/06 06:01:14;;;;;;;3.90;3.70;;;18.80;57.70;;;;;;6214618;28;20722;-78
2023/07/06 06:04:17;;;;;;;3.53;3.43;;;18.90;57.30;;;;;;6222886;28;20266;-79
2023/07/06 06:07:21;;;;;;;5.20;3.60;;;18.90;57.90;;;;;;6218417;28;20788;-78
2023/07/06 06:10:25;;;;;;;4.13;3.73;;;19.40;56.90;;;;;;6200022;28;20251;-79
2023/07/06 06:13:40;;;;;;;3.43;3.33;;;19.50;56.40;;;;;;6200523;28;20242;-78
2023/07/06 06:16:46;;;;;;;5.53;3.50;;;19.90;56.70;;;;;;6215931;28;20235;-78
2023/07/06 06:19:49;;;;;;;5.23;3.50;;;20.30;54.60;;;;;;6204402;28;20982;-79
2023/07/06 06:22:52;;;;;;;5.70;3.40;;;20.10;55.00;;;;;;6214137;28;20279;-78
2023/07/06 06:25:57;;;;;;;3.57;3.30;;;20.30;55.50;;;;;;6204441;28;20313;-79
2023/07/06 06:29:00;;;;;;;3.00;2.90;;;20.60;54.70;;;;;;6204010;28;20365;-79
2023/07/06 06:32:04;;;;;;;4.50;3.80;;;20.30;54.20;;;;;;6209930;28;20324;-80
2023/07/06 06:35:21;;;;;;;7.50;3.20;;;20.70;53.30;;;;;;6195204;28;20238;-79
2023/07/06 06:38:24;;;;;;;3.33;3.00;;;20.00;53.90;;;;;;6233581;28;20247;-78
2023/07/06 06:41:29;;;;;;;3.00;2.80;;;20.10;53.70;;;;;;6231866;28;20329;-77
2023/07/06 06:44:33;;;;;;;3.20;3.00;;;20.50;53.30;;;;;;6234112;28;20617;-80
2023/07/06 06:47:36;;;;;;;3.47;3.27;;;20.70;52.60;;;;;;6239014;28;20243;-79
2023/07/06 06:50:39;;;;;;;3.07;2.87;;;20.60;53.20;;;;;;6236765;28;20235;-78
2023/07/06 06:53:43;;;;;;;3.23;3.03;;;20.80;52.20;;;;;;6242505;28;20611;-78
2023/07/06 06:56:49;;;;;;;3.33;2.97;;;20.30;52.60;;;;;;6241036;28;20238;-80
2023/07/06 06:59:53;;;;;;;2.80;2.60;;;20.30;52.50;;;;;;6225803;28;20231;-78
2023/07/06 07:02:57;;;;;;;3.10;2.90;;;20.10;52.70;;;;;;6240984;28;20250;-80
2023/07/06 07:06:01;;;;;;;3.10;2.87;;;20.20;52.20;;;;;;6237277;28;20243;-78
2023/07/06 07:09:05;;;;;;;3.50;3.30;;;20.30;52.20;;;;;;6211110;28;20243;-79
2023/07/06 07:12:10;;;;;;;2.60;2.40;;;20.40;52.30;;;;;;6209782;28;20782;-79
2023/07/06 07:15:15;;;;;;;3.50;3.20;;;20.60;52.20;;;;;;6214806;28;20286;-76
2023/07/06 07:18:18;;;;;;;3.27;3.07;;;21.00;52.00;;;;;;6234267;28;20238;-78
2023/07/06 07:21:21;;;;;;;2.77;2.67;;;21.00;51.90;;;;;;6238958;28;20836;-81
2023/07/06 07:24:24;;;;;;;2.93;2.77;;;20.60;51.70;;;;;;6224234;28;20334;-78
2023/07/06 07:27:29;;;;;;;3.20;3.00;;;20.70;52.10;;;;;;6236889;28;20248;-78
2023/07/06 07:30:33;;;;;;;3.33;3.10;;;20.40;53.20;;;;;;6234700;28;20261;-79
2023/07/06 07:33:37;;;;;;;2.73;2.53;;;20.60;53.50;;;;;;6234102;28;20238;-79
2023/07/06 07:36:40;;;;;;;2.80;2.70;;;21.00;51.80;;;;;;6246352;28;20245;-79
2023/07/06 07:39:43;;;;;;;3.00;2.80;;;20.90;51.80;;;;;;6232124;28;20711;-78
2023/07/06 07:42:48;;;;;;;2.73;2.50;;;21.10;53.10;;;;;;6230858;28;20308;-78
2023/07/06 07:45:51;;;;;;;2.47;2.37;;;20.90;52.10;;;;;;6212410;28;20792;-78
2023/07/06 07:48:54;;;;;;;3.03;2.93;;;21.00;52.10;;;;;;6208751;28;20274;-80
2023/07/06 07:51:57;;;;;;;3.10;2.90;;;21.00;50.90;;;;;;6220551;28;20262;-79
2023/07/06 07:55:01;;;;;;;5.53;2.60;;;20.30;52.80;;;;;;6206390;28;20228;-80
2023/07/06 07:58:06;;;;;;;2.40;2.40;;;20.30;52.90;;;;;;6209091;28;20795;-78
2023/07/06 08:01:11;;;;;;;2.63;2.47;;;20.30;51.60;;;;;;6213404;28;20255;-79
2023/07/06 08:04:15;;;;;;;2.43;2.43;;;19.70;52.30;;;;;;6211727;28;20316;-79
2023/07/06 08:07:18;;;;;;;2.67;2.47;;;19.80;52.70;;;;;;6208477;28;20318;-78
2023/07/06 08:10:21;;;;;;;3.13;2.93;;;20.00;52.30;;;;;;6211711;28;20862;-79
2023/07/06 08:13:26;;;;;;;2.30;2.20;;;20.00;52.10;;;;;;6210510;28;20239;-78
2023/07/06 08:16:29;;;;;;;2.83;2.63;;;20.10;52.00;;;;;;6204763;28;20252;-79
2023/07/06 08:19:33;;;;;;;4.33;2.50;;;20.20;52.30;;;;;;6210988;28;20238;-78
2023/07/06 08:22:58;;;;;;;2.43;2.33;;;20.10;52.50;;;;;;6211295;28;20243;-78
2023/07/06 08:26:04;;;;;;;5.70;2.80;;;20.20;52.40;;;;;;6210424;28;20243;-78
2023/07/06 08:29:08;;;;;;;2.67;2.47;;;20.00;52.30;;;;;;6206461;28;20309;-78
2023/07/06 08:32:15;;;;;;;2.27;2.20;;;19.70;52.00;;;;;;6203362;28;20248;-78
2023/07/06 08:35:19;;;;;;;2.67;2.57;;;19.70;52.90;;;;;;6214368;28;20223;-78
2023/07/06 08:38:22;;;;;;;2.93;2.43;;;19.90;53.10;;;;;;6206919;28;20277;-79
2023/07/06 08:41:29;;;;;;;2.57;2.40;;;20.00;53.00;;;;;;6210341;28;20235;-78
2023/07/06 08:44:34;;;;;;;2.90;2.70;;;20.40;52.50;;;;;;6213120;28;20869;-78
2023/07/06 08:47:39;;;;;;;4.43;2.50;;;20.60;52.00;;;;;;6213022;28;20290;-78
2023/07/06 08:50:48;;;;;;;2.67;2.47;;;20.70;51.10;;;;;;6206402;28;20326;-79
2023/07/06 08:53:56;;;;;;;3.33;2.50;;;21.10;50.50;;;;;;6213216;28;20243;-77
2023/07/06 08:57:01;;;;;;;2.70;2.50;;;21.00;50.70;;;;;;6205500;28;20231;-77
2023/07/06 09:00:19;;;;;;;2.30;2.23;;;20.80;51.00;;;;;;6203938;28;20232;-76
2023/07/06 09:03:23;;;;;;;3.17;2.73;;;21.00;51.00;;;;;;6209092;28;20247;-75
2023/07/06 09:06:28;;;;;;;2.67;2.60;;;21.10;50.90;;;;;;6212033;28;20227;-75
2023/07/06 09:09:34;;;;;;;2.60;2.50;;;21.10;50.80;;;;;;6207003;28;20235;-75
2023/07/06 09:12:39;;;;;;;7.87;2.80;;;21.10;50.70;;;;;;6205969;28;20250;-75
2023/07/06 09:15:48;;;;;;;2.63;2.53;;;21.10;51.60;;;;;;6212863;28;20262;-76
2023/07/06 09:18:53;;;;;;;2.43;2.33;;;21.10;50.80;;;;;;6211753;28;20232;-76
2023/07/06 09:21:56;;;;;;;2.97;2.77;;;21.40;50.50;;;;;;6209238;28;20239;-76
2023/07/06 09:25:05;;;;;;;2.90;2.60;;;21.10;50.70;;;;;;6208097;28;20249;-76
2023/07/06 09:28:15;;;;;;;2.77;2.57;;;21.00;51.00;;;;;;6203719;28;20918;-76
2023/07/06 09:31:22;;;;;;;2.93;2.83;;;20.90;51.40;;;;;;6204316;28;20716;-75
2023/07/06 09:34:28;;;;;;;2.70;2.60;;;20.80;52.20;;;;;;6216026;28;20270;-75
2023/07/06 09:37:31;;;;;;;2.50;2.40;;;20.80;52.00;;;;;;6199875;28;20747;-76
2023/07/06 09:40:35;;;;;;;2.57;2.47;;;20.90;52.10;;;;;;6212634;28;20246;-75
2023/07/06 09:43:39;;;;;;;2.77;2.57;;;21.10;51.10;;;;;;6210952;28;20254;-75
2023/07/06 09:46:44;;;;;;;2.77;2.67;;;21.30;50.60;;;;;;6200521;28;20239;-77
2023/07/06 09:49:52;;;;;;;3.03;2.93;;;21.60;50.00;;;;;;6199882;28;20239;-76
2023/07/06 09:52:58;;;;;;;3.57;3.37;;;21.80;50.50;;;;;;6208245;28;20736;-75
2023/07/06 09:56:02;;;;;;;3.17;2.73;;;21.60;49.70;;;;;;6210891;28;20309;-77
2023/07/06 09:59:06;;;;;;;2.50;2.40;;;21.50;51.10;;;;;;6203257;28;20247;-75
2023/07/06 10:02:25;;;;;;;3.90;2.93;;;21.80;49.90;;;;;;6210523;28;20239;-76
2023/07/06 10:05:36;;;;;;;2.60;2.50;;;22.10;50.50;;;;;;6217858;28;20710;-77
2023/07/06 10:08:44;;;;;;;7.20;2.77;;;22.10;48.90;;;;;;6213988;28;20377;-75
2023/07/06 10:11:52;;;;;;;3.23;2.83;;;21.90;49.20;;;;;;6226676;28;20864;-76
2023/07/06 10:14:55;;;;;;;5.60;2.80;;;21.90;49.60;;;;;;6242450;28;20246;-78
2023/07/06 10:18:05;;;;;;;2.70;2.60;;;22.10;49.70;;;;;;6223179;28;20315;-76
2023/07/06 10:21:18;;;;;;;3.17;2.43;;;21.50;49.40;;;;;;6234578;28;20325;-77
2023/07/06 10:24:33;;;;;;;6.73;2.60;;;21.70;49.90;;;;;;6238279;28;20242;-77
2023/07/06 10:27:43;;;;;;;2.73;2.63;;;21.60;49.50;;;;;;6239062;28;20246;-76
2023/07/06 10:30:49;;;;;;;3.13;2.67;;;21.50;50.10;;;;;;6236953;28;20254;-76
2023/07/06 10:33:59;;;;;;;2.70;2.60;;;21.70;51.00;;;;;;6239301;28;20263;-79
2023/07/06 10:37:06;;;;;;;2.90;2.70;;;22.00;50.50;;;;;;6238651;28;20243;-77
2023/07/06 10:40:20;;;;;;;2.70;2.60;;;21.90;48.70;;;;;;6258613;28;20243;-78
2023/07/06 10:43:27;;;;;;;2.17;2.00;;;21.90;49.60;;;;;;6259842;28;20291;-76
2023/07/06 10:46:33;;;;;;;2.60;2.50;;;21.90;49.10;;;;;;6239258;28;20322;-77
2023/07/06 10:50:22;;;;;;;3.67;2.50;;;21.90;48.40;;;;;;6222942;28;20247;-76
2023/07/06 10:53:37;;;;;;;4.30;2.73;;;21.60;48.40;;;;;;6222481;28;20262;-75
2023/07/06 10:56:45;;;;;;;2.57;2.30;;;21.70;49.40;;;;;;6215810;28;20382;-77
2023/07/06 10:59:49;;;;;;;2.33;2.33;;;21.70;49.50;;;;;;6214117;28;20248;-76
2023/07/06 11:02:55;;;;;;;2.50;2.50;;;22.10;48.80;;;;;;6214060;28;20243;-76
2023/07/06 11:06:06;;;;;;;2.57;2.53;;;22.50;48.30;;;;;;6201482;28;20423;-75
2023/07/06 11:09:14;;;;;;;2.70;2.60;;;22.60;48.50;;;;;;6207965;28;20691;-77
2023/07/06 11:12:20;;;;;;;4.60;2.80;;;22.70;49.40;;;;;;6229619;28;20397;-77
2023/07/06 11:15:26;;;;;;;2.70;2.60;;;22.20;48.20;;;;;;6240649;28;20230;-79
2023/07/06 11:18:36;;;;;;;4.20;2.93;;;22.30;48.40;;;;;;6239975;28;20226;-78
2023/07/06 11:21:45;;;;;;;2.93;2.43;;;22.60;48.30;;;;;;6240171;28;20831;-78
2023/07/06 11:24:53;;;;;;;3.70;2.83;;;22.80;48.60;;;;;;6208149;28;20231;-81
2023/07/06 11:27:59;;;;;;;9.77;3.10;;;22.60;48.00;;;;;;6206724;28;20239;-79
2023/07/06 11:31:12;;;;;;;3.37;3.17;;;22.50;47.60;;;;;;6204324;28;20737;-80
2023/07/06 11:34:25;;;;;;;2.70;2.70;;;22.60;48.20;;;;;;6203477;28;20239;-81
2023/07/06 11:37:40;;;;;;;3.07;2.77;;;22.50;48.50;;;;;;6213523;28;20644;-79
2023/07/06 11:41:17;;;;;;;3.07;2.97;;;22.50;48.50;;;;;;6213362;28;20278;-78
2023/07/06 11:44:35;;;;;;;2.77;2.67;;;22.50;48.80;;;;;;6214570;28;20326;-75
2023/07/06 11:47:53;;;;;;;2.63;2.53;;;22.60;48.00;;;;;;6213391;28;20243;-76
2023/07/06 11:50:56;;;;;;;2.83;2.73;;;22.70;48.00;;;;;;6213198;28;20235;-79
2023/07/06 11:54:04;;;;;;;3.07;2.73;;;22.30;48.00;;;;;;6215390;28;20239;-80
2023/07/06 11:57:25;;;;;;;2.93;2.80;;;22.30;48.70;;;;;;6211599;28;20232;-76
2023/07/06 12:00:48;;;;;;;2.70;2.60;;;22.30;48.40;;;;;;6210242;28;20762;-77
2023/07/06 12:03:59;;;;;;;3.10;2.90;;;22.20;49.10;;;;;;6238924;28;20238;-78
2023/07/06 12:07:08;;;;;;;6.47;3.30;;;22.00;48.80;;;;;;6227576;28;20240;-80
2023/07/06 12:10:16;;;;;;;3.57;3.47;;;21.90;49.80;;;;;;6218431;28;20666;-76
2023/07/06 12:13:25;;;;;;;2.70;2.70;;;21.70;49.50;;;;;;6193332;28;20586;-78
2023/07/06 12:16:33;;;;;;;2.73;2.63;;;21.70;49.30;;;;;;6211563;28;20357;-81
2023/07/06 12:19:41;;;;;;;3.47;3.00;;;21.40;49.00;;;;;;6209806;28;20711;-81
2023/07/06 12:22:53;;;;;;;2.93;2.63;;;21.10;48.60;;;;;;6212365;28;20235;-80
2023/07/06 12:25:59;;;;;;;2.40;2.30;;;21.30;49.90;;;;;;6202468;28;20247;-79
2023/07/06 12:29:03;;;;;;;2.77;2.77;;;21.70;48.90;;;;;;6214362;28;20235;-80
2023/07/06 12:32:13;;;;;;;2.70;2.60;;;21.90;48.50;;;;;;6209048;28;20732;-78
2023/07/06 12:35:17;;;;;;;2.30;2.30;;;22.10;48.20;;;;;;6211462;28;20878;-80
2023/07/06 12:38:22;;;;;;;3.23;3.03;;;22.50;47.30;;;;;;6209477;28;20246;-79
2023/07/06 12:41:26;;;;;;;3.40;3.03;;;22.80;47.60;;;;;;6216773;28;20317;-78
2023/07/06 12:44:30;;;;;;;2.50;2.40;;;22.70;47.60;;;;;;6215864;28;20323;-79
2023/07/06 12:47:37;;;;;;;2.77;2.67;;;22.70;46.10;;;;;;6209370;28;21292;-77
2023/07/06 12:50:41;;;;;;;4.27;3.23;;;22.70;46.60;;;;;;6211762;28;20228;-80
2023/07/06 12:53:45;;;;;;;2.57;2.57;;;22.90;46.60;;;;;;6210541;28;20495;-79
2023/07/06 12:56:59;;;;;;;3.33;3.03;;;22.70;47.10;;;;;;6205956;28;20329;-81
2023/07/06 13:00:09;;;;;;;2.80;2.70;;;22.70;46.80;;;;;;6203531;28;20231;-80
2023/07/06 13:03:13;;;;;;;3.00;2.80;;;22.90;48.00;;;;;;6201949;28;20240;-78
2023/07/06 13:06:17;;;;;;;2.60;2.60;;;23.00;47.30;;;;;;6219151;28;20239;-80
2023/07/06 13:09:31;;;;;;;2.67;2.57;;;23.50;47.00;;;;;;6230481;28;20247;-81
2023/07/06 13:12:42;;;;;;;3.23;2.30;;;24.00;47.00;;;;;;6235855;28;20825;-80
2023/07/06 13:15:46;;;;;;;2.33;2.23;;;23.90;44.90;;;;;;6214201;28;20332;-78
2023/07/06 13:18:51;;;;;;;2.83;2.60;;;24.00;45.40;;;;;;6224285;28;20238;-78
2023/07/06 13:21:55;;;;;;;2.63;2.43;;;23.60;45.40;;;;;;6206931;28;20235;-79
2023/07/06 13:24:59;;;;;;;3.20;3.00;;;23.30;45.40;;;;;;6213932;28;20253;-81
2023/07/06 13:28:03;;;;;;;2.30;2.10;;;23.30;46.50;;;;;;6211224;28;20243;-79
2023/07/06 13:31:12;;;;;;;2.40;2.40;;;23.50;45.70;;;;;;6214002;28;20235;-77
2023/07/06 13:34:16;;;;;;;2.70;2.60;;;23.60;45.00;;;;;;6212074;28;20334;-77
2023/07/06 13:37:22;;;;;;;2.80;2.60;;;23.80;44.30;;;;;;6218458;28;20246;-80
2023/07/06 13:40:25;;;;;;;2.60;2.40;;;23.30;44.90;;;;;;6222103;28;20621;-79
2023/07/06 13:43:30;;;;;;;2.33;2.23;;;23.10;44.60;;;;;;6233043;28;20241;-79
2023/07/06 13:46:34;;;;;;;2.30;2.20;;;23.10;45.20;;;;;;6215255;28;20322;-79
2023/07/06 13:49:37;;;;;;;2.57;2.50;;;23.50;45.30;;;;;;6213184;28;20302;-81
2023/07/06 13:52:41;;;;;;;2.50;2.30;;;23.80;44.90;;;;;;6208532;28;20282;-79
2023/07/06 13:55:49;;;;;;;4.00;2.10;;;24.00;43.70;;;;;;6221915;28;20238;-79
2023/07/06 13:58:53;;;;;;;2.33;2.30;;;24.10;42.30;;;;;;6223084;28;20236;-78
2023/07/06 14:02:02;;;;;;;2.47;2.37;;;24.00;43.30;;;;;;6238064;28;20254;-78
2023/07/06 14:05:12;;;;;;;2.07;2.07;;;23.90;43.00;;;;;;6248157;28;20653;-79
2023/07/06 14:08:18;;;;;;;2.80;2.67;;;24.00;42.80;;;;;;6234133;28;20393;-79
2023/07/06 14:11:22;;;;;;;2.53;2.53;;;24.00;43.10;;;;;;6240372;28;20301;-80
2023/07/06 14:14:26;;;;;;;2.60;2.40;;;24.10;42.10;;;;;;6228628;28;20247;-78
2023/07/06 14:17:29;;;;;;;2.50;2.40;;;24.00;42.50;;;;;;6217645;28;20246;-79
2023/07/06 14:20:33;;;;;;;5.80;2.57;;;24.00;41.60;;;;;;6219707;28;20231;-77
2023/07/06 14:23:36;;;;;;;2.40;2.40;;;24.20;42.70;;;;;;6216498;28;20255;-81
2023/07/06 14:26:40;;;;;;;2.20;2.00;;;24.20;41.50;;;;;;6211907;28;20232;-80
2023/07/06 14:29:45;;;;;;;2.47;2.47;;;24.20;41.30;;;;;;6231444;28;20629;-79
2023/07/06 14:32:50;;;;;;;2.30;2.30;;;24.20;41.30;;;;;;6231886;28;20239;-78
2023/07/06 14:35:54;;;;;;;2.30;2.30;;;24.40;41.40;;;;;;6234292;28;20730;-81
2023/07/06 14:39:00;;;;;;;2.20;2.03;;;24.40;40.70;;;;;;6229559;28;20230;-78
2023/07/06 14:42:04;;;;;;;2.03;2.00;;;24.20;41.50;;;;;;6228566;28;20238;-78
2023/07/06 14:45:10;;;;;;;2.20;2.10;;;24.00;42.10;;;;;;6229635;28;20236;-80
2023/07/06 14:48:14;;;;;;;2.60;2.50;;;24.10;40.80;;;;;;6229274;28;20770;-80
2023/07/06 14:51:18;;;;;;;3.23;2.07;;;24.00;41.90;;;;;;6228200;28;20246;-76
2023/07/06 14:54:21;;;;;;;2.43;2.23;;;23.90;41.70;;;;;;6234836;28;20246;-79
2023/07/06 14:57:25;;;;;;;4.63;2.10;;;24.00;42.00;;;;;;6228838;28;20296;-80
2023/07/06 15:00:29;;;;;;;2.60;2.50;;;23.90;41.70;;;;;;6233623;28;20247;-80
2023/07/06 15:03:32;;;;;;;3.50;2.33;;;23.80;42.00;;;;;;6240989;28;20238;-79
2023/07/06 15:06:36;;;;;;;2.13;2.13;;;23.80;42.20;;;;;;6247042;28;20227;-80
2023/07/06 15:09:39;;;;;;;2.50;2.40;;;24.00;41.60;;;;;;6241726;28;20239;-80
2023/07/06 15:12:42;;;;;;;3.43;2.23;;;23.90;41.20;;;;;;6239997;28;20238;-78
2023/07/06 15:15:47;;;;;;;2.27;2.17;;;23.90;41.10;;;;;;6217949;28;20246;-77
2023/07/06 15:18:50;;;;;;;2.50;2.30;;;23.80;41.80;;;;;;6238205;28;20655;-77
2023/07/06 15:21:53;;;;;;;2.27;2.23;;;24.00;42.00;;;;;;6239794;28;20321;-79
2023/07/06 15:24:56;;;;;;;2.30;2.20;;;24.20;42.10;;;;;;6229205;28;20234;-80
2023/07/06 15:27:59;;;;;;;2.20;2.20;;;24.20;42.10;;;;;;6236109;28;20245;-78
2023/07/06 15:31:04;;;;;;;2.50;2.50;;;24.20;41.80;;;;;;6209905;28;20657;-80
2023/07/06 15:34:09;;;;;;;2.43;2.33;;;24.00;41.60;;;;;;6209402;28;20310;-79
2023/07/06 15:37:12;;;;;;;2.30;2.20;;;24.00;42.50;;;;;;6201005;28;20239;-76
2023/07/06 15:40:15;;;;;;;2.30;2.20;;;23.90;42.10;;;;;;6213795;28;20747;-77
2023/07/06 15:43:18;;;;;;;3.80;2.17;;;24.00;42.60;;;;;;6216149;28;20773;-80
2023/07/06 15:46:23;;;;;;;2.53;2.43;;;24.10;42.70;;;;;;6231086;28;20249;-81
2023/07/06 15:49:26;;;;;;;2.57;2.40;;;24.00;41.90;;;;;;6236558;28;20283;-78
2023/07/06 15:52:29;;;;;;;2.60;2.50;;;24.00;42.20;;;;;;6217458;28;20326;-74
2023/07/06 15:55:33;;;;;;;2.43;2.30;;;24.00;41.90;;;;;;6221473;28;21762;-76
2023/07/06 15:58:37;;;;;;;2.43;2.33;;;24.00;42.40;;;;;;6204983;28;20223;-75
2023/07/06 16:01:42;;;;;;;2.57;2.37;;;23.80;42.50;;;;;;6212964;28;20235;-76
2023/07/06 16:04:45;;;;;;;2.90;2.47;;;23.90;42.10;;;;;;6210302;28;20244;-77
2023/07/06 16:07:48;;;;;;;2.27;2.03;;;23.60;42.30;;;;;;6206866;28;20709;-77
2023/07/06 16:10:52;;;;;;;2.30;2.20;;;23.30;42.10;;;;;;6210643;28;20816;-77